This is the latest recevied weather packets stored in our database for station/object NR0A-4. If no packets are shown the sender has not sent any weather packets the latest 1 day(s).
| Time | Temp. | Humidity | Pressure | Rain* | Wind** | Luminosity | Snow |
|---|---|---|---|---|---|---|---|
| 1778007904 | 13.33° C | 38% | 1013.3 hPa | 0 mm | 2.24 m/s, 283° | 867 W/m² | - |
| 1778007604 | 13.33° C | 36% | 1013.3 hPa | 0 mm | 1.34 m/s, 306° | 571 W/m² | - |
| 1778007304 | 13.33° C | 39% | 1013.3 hPa | 0 mm | 1.79 m/s, 280° | 561 W/m² | - |
| 1778007004 | 13.33° C | 36% | 1013.5 hPa | 0 mm | 2.68 m/s, 280° | 967 W/m² | - |
| 1778006704 | 13.33° C | 39% | 1013.5 hPa | 0 mm | 2.24 m/s, 284° | 923 W/m² | - |
| 1778006404 | 12.78° C | 38% | 1013.5 hPa | 0 mm | 2.24 m/s, 246° | 918 W/m² | - |
| 1778006105 | 12.78° C | 38% | 1013.7 hPa | 0 mm | 2.68 m/s, 270° | 939 W/m² | - |
| 1778005804 | 12.22° C | 41% | 1013.7 hPa | 0 mm | 3.13 m/s, 276° | 729 W/m² | - |
| 1778005504 | 12.22° C | 39% | 1013.8 hPa | 0 mm | 1.34 m/s, 302° | 940 W/m² | - |
| 1778005204 | 12.22° C | 38% | 1013.9 hPa | 0 mm | 2.24 m/s, 284° | 271 W/m² | - |
| 1778004904 | 12.22° C | 40% | 1013.9 hPa | 0 mm | 1.34 m/s, 321° | 788 W/m² | - |
| 1778004604 | 12.22° C | 40% | 1014.1 hPa | 0 mm | 2.24 m/s, 265° | 951 W/m² | - |
| 1778004304 | 12.78° C | 40% | 1014.1 hPa | 0 mm | 1.34 m/s, 293° | 380 W/m² | - |
| 1778004004 | 12.22° C | 40% | 1014.2 hPa | 0 mm | 2.68 m/s, 277° | 722 W/m² | - |
| 1778003704 | 12.22° C | 40% | 1014.1 hPa | 0 mm | 2.68 m/s, 261° | 998 W/m² | - |
| 1778003405 | 12.22° C | 41% | 1014 hPa | 0 mm | 2.24 m/s, 269° | 1063 W/m² | - |
| 1778003104 | 11.67° C | 44% | 1014.1 hPa | 0 mm | 1.34 m/s, 266° | 1037 W/m² | - |
| 1778002804 | 11.67° C | 45% | 1014.2 hPa | 0 mm | 1.34 m/s, 254° | 707 W/m² | - |
| 1778002505 | 11.67° C | 41% | 1014.1 hPa | 0 mm | 1.34 m/s, 269° | 693 W/m² | - |
| 1778002205 | 11.67° C | 41% | 1014.2 hPa | 0 mm | 1.79 m/s, 342° | 777 W/m² | - |
| 1778001904 | 11.67° C | 43% | 1014.2 hPa | 0 mm | 1.79 m/s, 253° | 448 W/m² | - |
| 1778001604 | 11.11° C | 43% | 1014.3 hPa | 0 mm | 2.24 m/s, 288° | 958 W/m² | - |
| 1778001304 | 11.11° C | 45% | 1014.2 hPa | 0 mm | 0.89 m/s, 254° | 680 W/m² | - |
| 1778001005 | 11.11° C | 46% | 1014.3 hPa | 0 mm | 2.24 m/s, 282° | 497 W/m² | - |
| 1778000705 | 11.11° C | 47% | 1014.2 hPa | 0 mm | 0.89 m/s, 269° | 612 W/m² | - |
* Rain latest hour (hover to see other rain measurements)
** Current wind speed in m/s (hover to see current wind gust speed)